createdAt,value
2022-11-16T00:02:19.585Z,26.58
2022-11-16T00:04:48.480Z,26.23
2022-11-16T00:07:17.424Z,27.70
2022-11-16T00:09:47.042Z,27.05
2022-11-16T00:12:13.654Z,27.83
2022-11-16T00:14:42.410Z,25.15
2022-11-16T00:17:08.933Z,25.08
2022-11-16T00:19:35.495Z,26.40
2022-11-16T00:22:04.594Z,24.83
2022-11-16T00:26:57.852Z,24.48
2022-11-16T00:29:29.780Z,27.42
2022-11-16T00:31:59.490Z,25.02
2022-11-16T00:34:26.119Z,27.15
2022-11-16T00:36:52.681Z,24.05
2022-11-16T00:39:21.855Z,23.25
2022-11-16T00:44:18.516Z,25.33
2022-11-16T00:46:47.398Z,23.95
2022-11-16T00:49:16.227Z,24.63
2022-11-16T00:51:45.071Z,25.27
2022-11-16T00:54:11.749Z,23.00
2022-11-16T00:56:43.177Z,25.80
2022-11-16T00:59:12.203Z,25.15
2022-11-16T01:01:38.729Z,27.25
2022-11-16T01:04:05.538Z,26.38
2022-11-16T01:06:32.102Z,26.35
2022-11-16T01:08:58.672Z,25.02
2022-11-16T01:11:43.792Z,26.05
2022-11-16T01:14:10.505Z,23.77
2022-11-16T01:16:37.592Z,25.60
2022-11-16T01:19:05.048Z,27.13
2022-11-16T01:21:31.649Z,27.23
2022-11-16T01:23:58.216Z,25.80
2022-11-16T01:26:25.071Z,27.08
2022-11-16T01:28:54.343Z,28.20
2022-11-16T01:31:21.324Z,29.40
2022-11-16T01:33:50.450Z,25.48
2022-11-16T01:36:17.690Z,25.73
2022-11-16T01:38:46.027Z,26.10
2022-11-16T01:41:22.160Z,24.98
2022-11-16T01:43:55.303Z,26.35
2022-11-16T01:46:22.364Z,24.90
2022-11-16T01:48:57.739Z,26.70
2022-11-16T01:53:54.018Z,26.10
2022-11-16T01:56:21.856Z,24.95
2022-11-16T01:58:49.640Z,26.02
2022-11-16T02:01:16.273Z,24.48
2022-11-16T02:03:43.041Z,24.50
2022-11-16T02:06:18.517Z,23.65
2022-11-16T02:09:20.296Z,25.15
2022-11-16T02:12:05.471Z,22.38
2022-11-16T02:14:32.005Z,22.40
2022-11-16T02:17:05.369Z,24.02
2022-11-16T02:19:55.675Z,23.98
2022-11-16T02:22:37.271Z,23.20
2022-11-16T02:25:17.398Z,24.10
2022-11-16T02:28:02.433Z,23.38
2022-11-16T02:30:31.457Z,24.90
2022-11-16T02:33:10.681Z,22.77
2022-11-16T02:35:42.435Z,23.80
2022-11-16T02:38:19.006Z,20.70
2022-11-16T02:40:55.013Z,22.55
2022-11-16T02:43:29.775Z,22.88
2022-11-16T02:46:02.351Z,21.67
2022-11-16T02:48:38.497Z,22.88
2022-11-16T02:51:06.790Z,23.35
2022-11-16T02:53:39.212Z,22.65
2022-11-16T02:56:08.997Z,23.70
2022-11-16T02:58:40.052Z,21.60
2022-11-16T03:01:12.722Z,22.20
2022-11-16T03:03:57.963Z,21.25
2022-11-16T03:06:41.577Z,22.77
2022-11-16T03:09:12.575Z,22.33
2022-11-16T03:12:02.875Z,22.30
2022-11-16T03:14:48.957Z,19.63
2022-11-16T03:17:27.490Z,18.88
2022-11-16T03:20:12.109Z,20.45
2022-11-16T03:22:45.908Z,19.85
2022-11-16T03:25:17.981Z,17.75
2022-11-16T03:27:54.097Z,18.65
2022-11-16T03:30:25.965Z,19.67
2022-11-16T03:33:23.311Z,18.08
2022-11-16T03:36:00.403Z,18.80
2022-11-16T03:38:30.814Z,21.23
2022-11-16T03:41:02.353Z,20.92
2022-11-16T03:43:30.979Z,20.08
2022-11-16T03:45:58.212Z,18.85
2022-11-16T03:48:25.340Z,18.50
2022-11-16T03:50:52.163Z,18.83
2022-11-16T03:53:23.450Z,20.20
2022-11-16T03:55:53.251Z,19.23
2022-11-16T03:58:25.277Z,20.33
2022-11-16T04:00:51.999Z,20.85
2022-11-16T04:03:18.551Z,19.95
2022-11-16T04:06:06.172Z,19.08
2022-11-16T04:08:54.089Z,19.25
2022-11-16T04:11:41.047Z,18.13
2022-11-16T04:14:33.322Z,19.55
2022-11-16T04:17:18.113Z,22.00
2022-11-16T04:20:03.074Z,19.38
2022-11-16T04:22:54.776Z,18.52
2022-11-16T04:25:28.894Z,21.33
2022-11-16T04:28:13.520Z,20.77
2022-11-16T04:31:04.642Z,21.40
2022-11-16T04:33:50.256Z,20.58
2022-11-16T04:36:35.590Z,19.65
2022-11-16T04:39:02.972Z,22.13
2022-11-16T04:41:52.104Z,21.80
2022-11-16T04:44:19.446Z,23.40
2022-11-16T04:47:04.843Z,23.83
2022-11-16T04:49:34.084Z,23.13
2022-11-16T04:52:00.706Z,21.67
2022-11-16T04:54:29.735Z,23.17
2022-11-16T04:56:56.244Z,24.13
2022-11-16T04:59:25.311Z,23.88
2022-11-16T05:02:12.125Z,22.95
2022-11-16T05:04:43.373Z,23.40
2022-11-16T05:07:12.836Z,24.45
2022-11-16T05:09:44.806Z,24.10
2022-11-16T05:12:15.558Z,22.90
2022-11-16T05:14:44.846Z,25.25
2022-11-16T05:17:12.425Z,25.00
2022-11-16T05:19:57.827Z,25.65
2022-11-16T05:22:25.315Z,24.08
2022-11-16T05:24:54.098Z,24.55
2022-11-16T05:27:25.943Z,22.20
2022-11-16T05:29:55.202Z,20.40
2022-11-16T05:32:25.280Z,26.85
2022-11-16T05:34:51.882Z,23.42
2022-11-16T05:37:21.070Z,22.70
2022-11-16T05:42:14.398Z,23.15
2022-11-16T05:44:40.893Z,24.85
2022-11-16T05:47:07.393Z,25.35
2022-11-16T05:49:37.243Z,23.13
2022-11-16T05:52:03.953Z,22.67
2022-11-16T05:54:34.067Z,26.70
2022-11-16T05:57:00.597Z,26.42
2022-11-16T05:59:31.870Z,24.70
2022-11-16T06:01:58.516Z,27.50
2022-11-16T06:04:25.152Z,26.73
2022-11-16T06:06:52.326Z,26.75
2022-11-16T06:09:19.212Z,25.27
2022-11-16T06:11:48.021Z,24.88
2022-11-16T06:14:16.816Z,25.10
2022-11-16T06:16:45.675Z,24.75
2022-11-16T06:19:12.224Z,23.63
2022-11-16T06:21:38.764Z,25.83
2022-11-16T06:24:09.464Z,26.52
2022-11-16T06:26:38.608Z,28.02
2022-11-16T06:31:33.875Z,28.60
2022-11-16T06:34:05.178Z,29.48
2022-11-16T06:36:31.697Z,30.63
2022-11-16T06:39:03.502Z,27.90
2022-11-16T06:41:30.047Z,25.92
2022-11-16T06:43:56.583Z,25.05
2022-11-16T06:46:24.637Z,24.90
2022-11-16T06:48:51.433Z,29.02
2022-11-16T06:51:18.163Z,27.50
2022-11-16T06:53:47.116Z,28.02
2022-11-16T06:56:15.548Z,27.52
2022-11-16T06:58:43.014Z,24.67
2022-11-16T07:01:11.431Z,28.05
2022-11-16T07:03:40.730Z,28.27
2022-11-16T07:06:12.956Z,27.98
2022-11-16T07:08:40.354Z,25.88
2022-11-16T07:11:08.471Z,28.88
2022-11-16T07:13:38.706Z,24.80
2022-11-16T07:19:36.779Z,27.38
2022-11-16T07:22:04.297Z,26.98
2022-11-16T07:24:30.842Z,27.10
2022-11-16T07:27:00.390Z,29.08
2022-11-16T07:29:26.891Z,31.02
2022-11-16T07:31:55.923Z,29.75
2022-11-16T07:34:27.264Z,27.83
2022-11-16T07:36:56.062Z,25.85
2022-11-16T07:39:24.811Z,26.88
2022-11-16T07:41:53.559Z,29.13
2022-11-16T07:44:22.636Z,27.48
2022-11-16T07:47:08.679Z,28.30
2022-11-16T07:49:35.224Z,30.60
2022-11-16T07:52:37.896Z,32.40
2022-11-16T07:55:13.748Z,32.08
2022-11-16T07:57:43.602Z,29.55
2022-11-16T08:00:19.566Z,28.88
2022-11-16T08:05:42.437Z,30.20
2022-11-16T08:08:23.200Z,31.15
2022-11-16T08:10:49.696Z,28.15
2022-11-16T08:16:56.810Z,29.00
2022-11-16T08:19:28.312Z,33.58
2022-11-16T08:21:54.792Z,32.55
2022-11-16T08:24:21.431Z,32.08
2022-11-16T08:26:54.178Z,30.45
2022-11-16T08:29:23.201Z,31.02
2022-11-16T08:31:49.691Z,28.85
2022-11-16T08:34:21.365Z,31.08
2022-11-16T08:36:57.709Z,31.23
2022-11-16T08:39:26.725Z,29.60
2022-11-16T08:41:59.673Z,30.20
2022-11-16T08:44:28.470Z,30.58
2022-11-16T08:46:55.013Z,28.90
2022-11-16T08:49:29.222Z,29.67
2022-11-16T08:51:58.412Z,28.65
2022-11-16T08:56:56.509Z,28.88
2022-11-16T08:59:23.403Z,31.08
2022-11-16T09:01:53.107Z,31.30
2022-11-16T09:04:19.767Z,31.40
2022-11-16T09:06:46.289Z,29.90
2022-11-16T09:09:12.854Z,31.33
2022-11-16T09:11:46.710Z,30.65
2022-11-16T09:14:15.795Z,30.55
2022-11-16T09:16:42.312Z,28.35
2022-11-16T09:19:14.403Z,29.27
2022-11-16T09:21:45.615Z,28.25
2022-11-16T09:24:14.463Z,28.50
2022-11-16T09:26:43.272Z,30.73
2022-11-16T09:29:16.051Z,29.40
2022-11-16T09:31:42.558Z,32.42
2022-11-16T09:34:12.224Z,29.17
2022-11-16T09:36:44.323Z,30.52
2022-11-16T09:39:41.375Z,31.67
2022-11-16T09:42:14.473Z,28.58
2022-11-16T09:48:06.088Z,29.70
2022-11-16T09:50:56.045Z,29.45
2022-11-16T09:54:00.775Z,29.75
2022-11-16T09:56:37.377Z,30.25
2022-11-16T09:59:20.394Z,31.67
2022-11-16T10:01:52.777Z,31.70
2022-11-16T10:04:47.157Z,35.60
2022-11-16T10:07:20.549Z,31.33
2022-11-16T10:09:47.875Z,31.42
2022-11-16T10:12:24.599Z,34.85
2022-11-16T10:15:04.646Z,34.13
2022-11-16T10:18:04.762Z,35.28
2022-11-16T10:20:52.828Z,29.23
2022-11-16T10:23:53.213Z,31.40
2022-11-16T10:26:53.734Z,30.77
2022-11-16T10:29:34.623Z,31.48
2022-11-16T10:39:40.332Z,29.98
2022-11-16T10:42:21.216Z,28.73
2022-11-16T10:44:55.219Z,28.85
2022-11-16T10:47:28.125Z,28.48
2022-11-16T10:50:27.282Z,28.35
2022-11-16T10:52:56.176Z,27.55
2022-11-16T10:55:24.315Z,30.73
2022-11-16T10:58:07.770Z,28.63
2022-11-16T11:00:37.334Z,28.88
2022-11-16T11:03:04.157Z,25.73
2022-11-16T11:05:31.259Z,28.48
2022-11-16T11:08:10.835Z,30.63
2022-11-16T11:10:38.981Z,29.55
2022-11-16T11:13:11.317Z,30.45
2022-11-16T11:15:48.062Z,30.15
2022-11-16T11:18:20.582Z,29.33
2022-11-16T11:21:06.635Z,29.88
2022-11-16T11:23:46.553Z,28.20
2022-11-16T11:26:41.845Z,27.00
2022-11-16T11:29:23.422Z,28.13
2022-11-16T11:32:37.663Z,27.25
2022-11-16T11:35:07.573Z,30.90
2022-11-16T11:37:40.167Z,27.52
2022-11-16T11:40:09.828Z,28.13
2022-11-16T11:42:48.978Z,28.98
2022-11-16T11:45:19.419Z,26.50
2022-11-16T11:47:59.196Z,26.25
2022-11-16T11:50:34.360Z,25.58
2022-11-16T11:53:19.083Z,27.35
2022-11-16T11:55:45.655Z,26.95
2022-11-16T11:58:29.697Z,25.35
2022-11-16T12:01:14.515Z,27.20
2022-11-16T12:03:56.298Z,26.42
2022-11-16T12:09:31.839Z,26.00
2022-11-16T12:12:39.180Z,24.83
2022-11-16T12:15:11.375Z,25.45
2022-11-16T12:18:26.005Z,24.95
2022-11-16T12:21:17.358Z,24.35
2022-11-16T12:23:49.888Z,23.55
2022-11-16T12:26:37.634Z,26.00
2022-11-16T12:29:16.736Z,23.85
2022-11-16T12:32:07.593Z,21.20
2022-11-16T12:34:58.272Z,21.25
2022-11-16T12:37:36.311Z,23.25
2022-11-16T12:40:40.233Z,24.08
2022-11-16T12:43:44.453Z,25.00
2022-11-16T12:50:07.190Z,20.77
2022-11-16T12:52:42.204Z,21.50
2022-11-16T12:59:35.818Z,20.80
2022-11-16T13:09:49.367Z,22.25
2022-11-16T13:12:23.520Z,20.23
2022-11-16T13:14:53.393Z,18.83
2022-11-16T13:17:29.178Z,21.40
2022-11-16T13:20:14.527Z,20.67
2022-11-16T13:22:53.446Z,22.52
2022-11-16T13:25:37.922Z,20.13
2022-11-16T13:29:00.263Z,20.55
2022-11-16T13:31:48.464Z,19.55
2022-11-16T13:34:28.358Z,19.08
2022-11-16T13:36:57.397Z,17.35
2022-11-16T13:39:57.954Z,17.35
2022-11-16T13:42:25.479Z,18.65
2022-11-16T13:44:53.162Z,18.48
2022-11-16T13:47:27.422Z,17.75
2022-11-16T13:50:02.629Z,17.95
2022-11-16T13:53:36.291Z,17.73
2022-11-16T13:55:36.425Z,16.83
2022-11-16T13:58:09.312Z,15.02
2022-11-16T14:00:38.825Z,17.77
2022-11-16T14:03:17.163Z,17.55
2022-11-16T14:05:49.488Z,16.85
2022-11-16T14:08:19.098Z,17.73
2022-11-16T14:10:51.657Z,15.25
2022-11-16T14:13:30.531Z,16.70
2022-11-16T14:16:15.126Z,14.90
2022-11-16T14:18:42.429Z,15.27
2022-11-16T14:21:46.359Z,16.63
2022-11-16T14:24:27.931Z,16.02
2022-11-16T14:27:06.660Z,16.52
2022-11-16T14:29:39.430Z,15.98
2022-11-16T14:32:25.712Z,13.85
2022-11-16T14:34:55.385Z,14.65
2022-11-16T14:37:24.483Z,15.48
2022-11-16T14:39:53.705Z,14.68
2022-11-16T14:42:24.786Z,14.05
2022-11-16T14:45:01.544Z,14.85
2022-11-16T14:47:33.083Z,15.00
2022-11-16T14:50:02.509Z,13.52
2022-11-16T14:52:36.863Z,14.73
2022-11-16T14:55:08.422Z,15.98
2022-11-16T14:57:38.196Z,13.77
2022-11-16T15:00:22.758Z,13.95
2022-11-16T15:02:56.376Z,13.10
2022-11-16T15:05:33.046Z,14.68
2022-11-16T15:08:00.631Z,14.70
2022-11-16T15:10:29.204Z,14.10
2022-11-16T15:12:59.189Z,15.55
2022-11-16T15:15:30.456Z,14.10
2022-11-16T15:18:02.773Z,14.77
2022-11-16T15:20:34.393Z,16.88
2022-11-16T15:23:05.170Z,14.57
2022-11-16T15:25:36.503Z,15.45
2022-11-16T15:28:08.553Z,15.93
2022-11-16T15:30:37.677Z,13.88
2022-11-16T15:35:36.398Z,16.35
2022-11-16T15:38:24.783Z,16.05
2022-11-16T15:40:55.906Z,18.50
2022-11-16T15:43:26.010Z,19.40
2022-11-16T15:45:53.911Z,17.80
2022-11-16T15:48:27.033Z,16.65
2022-11-16T15:51:04.301Z,18.48
2022-11-16T15:53:36.867Z,17.05
2022-11-16T15:56:30.284Z,15.50
2022-11-16T15:59:02.476Z,15.82
2022-11-16T16:01:32.680Z,15.27
2022-11-16T16:04:05.777Z,15.60
2022-11-16T16:06:59.146Z,17.05
2022-11-16T16:09:28.866Z,15.35
2022-11-16T16:12:17.934Z,16.52
2022-11-16T16:14:46.376Z,14.73
2022-11-16T16:17:26.780Z,16.48
2022-11-16T16:20:01.895Z,14.13
2022-11-16T16:22:38.020Z,16.23
2022-11-16T16:25:25.836Z,16.98
2022-11-16T16:27:54.814Z,15.10
2022-11-16T16:30:23.604Z,14.05
2022-11-16T16:32:52.966Z,14.10
2022-11-16T16:35:22.410Z,14.13
2022-11-16T16:37:50.995Z,15.23
2022-11-16T16:40:19.733Z,14.15
2022-11-16T16:42:48.855Z,16.08
2022-11-16T16:47:48.500Z,15.95
2022-11-16T16:52:44.605Z,13.68
2022-11-16T16:55:13.402Z,13.40
2022-11-16T16:57:40.011Z,13.20
2022-11-16T17:00:07.425Z,14.52
2022-11-16T17:02:35.891Z,13.63
2022-11-16T17:05:02.382Z,14.00
2022-11-16T17:07:29.407Z,14.18
2022-11-16T17:10:01.008Z,13.93
2022-11-16T17:12:29.745Z,12.50
2022-11-16T17:14:56.298Z,12.90
2022-11-16T17:17:25.538Z,13.07
2022-11-16T17:19:52.679Z,13.30
2022-11-16T17:22:20.300Z,12.98
2022-11-16T17:24:47.510Z,11.85
2022-11-16T17:27:14.247Z,12.00
2022-11-16T17:29:43.171Z,12.93
2022-11-16T17:32:14.579Z,11.70
2022-11-16T17:34:41.504Z,11.75
2022-11-16T17:37:13.983Z,13.88
2022-11-16T17:39:40.534Z,13.13
2022-11-16T17:42:07.092Z,13.63
2022-11-16T17:44:33.731Z,13.23
2022-11-16T17:47:04.959Z,14.65
2022-11-16T17:49:33.842Z,14.05
2022-11-16T17:52:06.258Z,15.13
2022-11-16T17:54:35.259Z,13.70
2022-11-16T17:57:01.840Z,11.57
2022-11-16T17:59:30.059Z,14.25
2022-11-16T18:01:58.199Z,13.57
2022-11-16T18:04:24.896Z,11.68
2022-11-16T18:06:53.987Z,12.48
2022-11-16T18:11:49.399Z,12.18
2022-11-16T18:14:15.894Z,12.05
2022-11-16T18:16:47.874Z,13.52
2022-11-16T18:19:17.624Z,10.77
2022-11-16T18:21:48.872Z,13.07
2022-11-16T18:24:18.060Z,11.85
2022-11-16T18:29:15.792Z,12.38
2022-11-16T18:31:45.296Z,11.63
2022-11-16T18:34:14.942Z,12.00
2022-11-16T18:36:44.126Z,10.70
2022-11-16T18:41:48.782Z,10.90
2022-11-16T18:44:19.989Z,11.07
2022-11-16T18:46:46.534Z,10.63
2022-11-16T18:49:13.020Z,11.40
2022-11-16T18:51:39.588Z,10.15
2022-11-16T18:54:06.972Z,12.25
2022-11-16T18:56:36.258Z,11.88
2022-11-16T18:59:03.395Z,11.32
2022-11-16T19:01:32.329Z,11.48
2022-11-16T19:04:03.779Z,11.63
2022-11-16T19:06:32.279Z,10.70
2022-11-16T19:09:03.930Z,10.95
2022-11-16T19:11:32.752Z,11.27
2022-11-16T19:14:07.794Z,11.93
2022-11-16T19:16:37.167Z,9.52
2022-11-16T19:19:06.190Z,12.20
2022-11-16T19:21:33.641Z,11.35
2022-11-16T19:24:04.950Z,8.88
2022-11-16T19:26:36.289Z,8.45
2022-11-16T19:29:07.086Z,7.45
2022-11-16T19:31:36.043Z,7.97
2022-11-16T19:34:09.771Z,7.80
2022-11-16T19:36:40.672Z,8.23
2022-11-16T19:39:12.250Z,8.73
2022-11-16T19:41:41.303Z,9.40
2022-11-16T19:44:07.851Z,7.82
2022-11-16T19:46:36.695Z,8.35
2022-11-16T19:49:05.814Z,9.35
2022-11-16T19:54:07.852Z,7.68
2022-11-16T19:56:37.404Z,9.27
2022-11-16T19:59:11.692Z,8.15
2022-11-16T20:01:43.735Z,8.38
2022-11-16T20:04:13.561Z,7.88
2022-11-16T20:06:40.734Z,8.48
2022-11-16T20:09:11.990Z,7.55
2022-11-16T20:11:40.738Z,7.68
2022-11-16T20:14:10.221Z,8.98
2022-11-16T20:16:42.292Z,8.73
2022-11-16T20:19:13.150Z,9.60
2022-11-16T20:21:44.501Z,9.25
2022-11-16T20:24:13.734Z,10.40
2022-11-16T20:26:46.159Z,8.60
2022-11-16T20:29:17.279Z,9.48
2022-11-16T20:31:45.579Z,8.85
2022-11-16T20:34:16.544Z,9.18
2022-11-16T20:36:50.987Z,9.10
2022-11-16T20:39:20.079Z,9.13
2022-11-16T20:41:49.846Z,10.32
2022-11-16T20:44:26.989Z,10.48
2022-11-16T20:47:00.950Z,10.55
2022-11-16T20:49:27.436Z,9.77
2022-11-16T20:51:58.879Z,10.10
2022-11-16T20:54:27.981Z,10.65
2022-11-16T20:56:56.996Z,10.10
2022-11-16T20:59:23.549Z,11.15
2022-11-16T21:01:52.990Z,10.57
2022-11-16T21:04:20.749Z,9.85
2022-11-16T21:06:47.288Z,10.10
2022-11-16T21:09:22.502Z,10.13
2022-11-16T21:12:08.522Z,10.32
2022-11-16T21:14:35.146Z,11.32
2022-11-16T21:17:02.161Z,10.70
2022-11-16T21:19:31.233Z,9.48
2022-11-16T21:21:59.972Z,10.95
2022-11-16T21:24:28.430Z,10.85
2022-11-16T21:26:54.981Z,11.55
2022-11-16T21:29:26.088Z,10.35
2022-11-16T21:31:52.634Z,11.55
2022-11-16T21:34:23.591Z,10.07
2022-11-16T21:36:52.312Z,9.75
2022-11-16T21:39:21.478Z,9.93
2022-11-16T21:44:14.464Z,9.07
2022-11-16T21:46:45.511Z,10.52
2022-11-16T21:49:14.291Z,10.57
2022-11-16T21:51:43.265Z,9.98
2022-11-16T21:54:10.199Z,10.70
2022-11-16T21:56:36.782Z,10.63
2022-11-16T21:59:03.320Z,10.88
2022-11-16T22:01:49.812Z,10.27
2022-11-16T22:04:34.680Z,9.40
2022-11-16T22:07:19.628Z,10.30
2022-11-16T22:09:50.960Z,10.30
2022-11-16T22:12:19.906Z,11.48
2022-11-16T22:14:46.701Z,12.32
2022-11-16T22:17:15.857Z,11.60
2022-11-16T22:22:11.118Z,10.07
2022-11-16T22:24:37.865Z,10.80
2022-11-16T22:27:04.470Z,10.55
2022-11-16T22:29:33.201Z,11.75
2022-11-16T22:31:59.777Z,10.50
2022-11-16T22:34:26.316Z,10.80
2022-11-16T22:36:55.284Z,12.05
2022-11-16T22:39:21.826Z,11.55
2022-11-16T22:41:50.742Z,11.50
2022-11-16T22:44:17.247Z,11.25
2022-11-16T22:46:46.412Z,11.45
2022-11-16T22:51:44.199Z,10.82
2022-11-16T22:54:11.627Z,10.63
2022-11-16T22:56:40.861Z,9.68
2022-11-16T22:59:09.782Z,10.30
2022-11-16T23:01:40.130Z,10.90
2022-11-16T23:04:11.563Z,10.38
2022-11-16T23:06:38.205Z,10.90
2022-11-16T23:09:05.025Z,10.40
2022-11-16T23:11:52.810Z,11.50
2022-11-16T23:14:40.206Z,11.45
2022-11-16T23:17:06.731Z,11.55
2022-11-16T23:19:54.866Z,12.20
2022-11-16T23:22:40.810Z,10.60
2022-11-16T23:25:29.293Z,10.63
2022-11-16T23:28:03.302Z,11.65
2022-11-16T23:30:29.999Z,11.65
2022-11-16T23:33:01.250Z,12.73
2022-11-16T23:35:27.778Z,11.82
2022-11-16T23:37:57.968Z,12.25
2022-11-16T23:40:26.949Z,12.70
2022-11-16T23:43:14.364Z,12.63
2022-11-16T23:45:44.408Z,11.52
2022-11-16T23:48:18.607Z,10.90
2022-11-16T23:50:49.222Z,11.13
2022-11-16T23:53:18.288Z,11.73
2022-11-16T23:58:15.141Z,12.10
